createdAt,value
2023-03-17T00:01:02.457Z,0
2023-03-17T00:02:16.867Z,0
2023-03-17T00:03:31.262Z,0
2023-03-17T00:04:45.588Z,0
2023-03-17T00:05:59.858Z,0
2023-03-17T00:07:14.145Z,0
2023-03-17T00:08:28.562Z,0
2023-03-17T00:09:42.886Z,0
2023-03-17T00:10:57.159Z,0
2023-03-17T00:12:11.439Z,0
2023-03-17T00:13:25.848Z,0
2023-03-17T00:14:40.161Z,0
2023-03-17T00:15:54.446Z,0
2023-03-17T00:17:08.878Z,0
2023-03-17T00:18:23.288Z,0
2023-03-17T00:19:37.596Z,0
2023-03-17T00:20:51.892Z,0
2023-03-17T00:22:06.175Z,0
2023-03-17T00:23:20.568Z,0
2023-03-17T00:24:34.904Z,0
2023-03-17T00:25:49.183Z,0
2023-03-17T00:27:03.458Z,0
2023-03-17T00:28:17.865Z,0
2023-03-17T00:29:32.182Z,0
2023-03-17T00:30:46.479Z,0
2023-03-17T00:32:00.752Z,0
2023-03-17T00:33:15.164Z,0
2023-03-17T00:34:29.483Z,0
2023-03-17T00:35:43.768Z,0
2023-03-17T00:36:58.036Z,0
2023-03-17T00:38:12.453Z,0
2023-03-17T00:39:26.775Z,0
2023-03-17T00:40:41.056Z,0
2023-03-17T00:43:09.873Z,0
2023-03-17T00:44:24.191Z,0
2023-03-17T00:45:38.465Z,0
2023-03-17T00:46:52.742Z,0
2023-03-17T00:48:07.168Z,0
2023-03-17T00:49:21.490Z,0
2023-03-17T00:50:35.766Z,0
2023-03-17T00:51:50.186Z,0
2023-03-17T00:53:04.605Z,0
2023-03-17T00:54:18.928Z,0
2023-03-17T00:55:33.192Z,0
2023-03-17T00:56:47.486Z,0
2023-03-17T00:58:01.905Z,0
2023-03-17T00:59:16.208Z,0
2023-03-17T01:00:30.495Z,0
2023-03-17T01:01:44.772Z,0
2023-03-17T01:02:59.178Z,0
2023-03-17T01:04:13.495Z,0
2023-03-17T01:05:27.778Z,0
2023-03-17T01:06:42.191Z,0
2023-03-17T01:07:56.589Z,0
2023-03-17T01:09:10.923Z,0
2023-03-17T01:10:25.197Z,0
2023-03-17T01:11:39.479Z,0
2023-03-17T01:12:53.894Z,0
2023-03-17T01:14:08.220Z,0
2023-03-17T01:15:22.486Z,0
2023-03-17T01:16:36.765Z,0
2023-03-17T01:17:51.190Z,0
2023-03-17T01:19:05.508Z,0
2023-03-17T01:20:19.791Z,0
2023-03-17T01:22:48.473Z,0
2023-03-17T01:24:02.790Z,0
2023-03-17T01:25:17.082Z,0
2023-03-17T01:26:31.365Z,0
2023-03-17T01:27:45.774Z,0
2023-03-17T01:29:00.085Z,0
2023-03-17T01:30:14.368Z,0
2023-03-17T01:31:28.773Z,0
2023-03-17T01:32:43.178Z,0
2023-03-17T01:35:11.781Z,0
2023-03-17T01:36:26.057Z,0
2023-03-17T01:37:40.479Z,0
2023-03-17T01:38:54.795Z,0
2023-03-17T01:40:09.080Z,0
2023-03-17T01:42:37.774Z,0
2023-03-17T01:43:52.092Z,0
2023-03-17T01:45:06.379Z,0
2023-03-17T01:46:20.651Z,0
2023-03-17T01:47:35.062Z,0
2023-03-17T01:48:49.373Z,0
2023-03-17T01:50:03.655Z,0
2023-03-17T01:51:18.069Z,0
2023-03-17T01:52:32.482Z,0
2023-03-17T01:53:46.798Z,0
2023-03-17T01:55:01.070Z,0
2023-03-17T01:56:15.361Z,0
2023-03-17T01:57:29.763Z,0
2023-03-17T01:58:44.094Z,0
2023-03-17T01:59:58.363Z,0
2023-03-17T02:01:12.660Z,0
2023-03-17T02:02:27.064Z,0
2023-03-17T02:03:41.378Z,0
2023-03-17T02:04:55.671Z,0
2023-03-17T02:06:09.934Z,0
2023-03-17T02:07:24.347Z,0
2023-03-17T02:08:38.678Z,0
2023-03-17T02:09:52.953Z,0
2023-03-17T02:11:07.245Z,0
2023-03-17T02:12:21.649Z,0
2023-03-17T02:13:35.978Z,0
2023-03-17T02:14:50.244Z,0
2023-03-17T02:16:04.537Z,0
2023-03-17T02:17:18.938Z,0
2023-03-17T02:18:33.261Z,0
2023-03-17T02:19:47.550Z,0
2023-03-17T02:21:01.814Z,0
2023-03-17T02:22:16.226Z,0
2023-03-17T02:23:30.553Z,0
2023-03-17T02:24:44.832Z,0
2023-03-17T02:25:59.107Z,0
2023-03-17T02:27:13.518Z,0
2023-03-17T02:28:27.852Z,0
2023-03-17T02:30:56.404Z,0
2023-03-17T02:32:10.810Z,0
2023-03-17T02:33:25.136Z,0
2023-03-17T02:34:39.422Z,0
2023-03-17T02:35:53.696Z,0
2023-03-17T02:37:08.166Z,0
2023-03-17T02:38:22.511Z,0
2023-03-17T02:39:35.844Z,0
2023-03-17T02:40:50.140Z,0
2023-03-17T02:42:04.542Z,0
2023-03-17T02:43:18.870Z,0
2023-03-17T02:44:33.142Z,0
2023-03-17T02:45:47.431Z,0
2023-03-17T02:47:01.841Z,0
2023-03-17T02:48:16.160Z,0
2023-03-17T02:49:30.559Z,0
2023-03-17T02:50:44.881Z,0
2023-03-17T02:51:59.159Z,0
2023-03-17T02:53:13.577Z,0
2023-03-17T02:54:27.904Z,0
2023-03-17T02:55:42.180Z,0
2023-03-17T02:56:56.459Z,0
2023-03-17T02:58:10.855Z,0
2023-03-17T02:59:25.182Z,0
2023-03-17T03:00:39.469Z,0
2023-03-17T03:01:53.743Z,0
2023-03-17T03:03:08.152Z,0
2023-03-17T03:04:22.469Z,0
2023-03-17T03:05:36.768Z,0
2023-03-17T03:06:51.183Z,0
2023-03-17T03:08:05.589Z,0
2023-03-17T03:09:19.904Z,0
2023-03-17T03:10:34.201Z,0
2023-03-17T03:11:48.590Z,0
2023-03-17T03:13:03.017Z,0
2023-03-17T03:14:17.329Z,0
2023-03-17T03:16:45.891Z,0
2023-03-17T03:18:00.296Z,0
2023-03-17T03:19:14.624Z,0
2023-03-17T03:20:28.911Z,0
2023-03-17T03:21:43.185Z,0
2023-03-17T03:22:57.584Z,0
2023-03-17T03:24:11.915Z,0
2023-03-17T03:25:26.198Z,0
2023-03-17T03:26:40.474Z,0
2023-03-17T03:29:09.210Z,0
2023-03-17T03:30:23.495Z,0
2023-03-17T03:31:37.913Z,0
2023-03-17T03:32:52.315Z,0
2023-03-17T03:34:06.635Z,0
2023-03-17T03:35:20.930Z,0
2023-03-17T03:36:35.337Z,0
2023-03-17T03:37:49.729Z,0
2023-03-17T03:39:04.062Z,0
2023-03-17T03:40:18.332Z,0
2023-03-17T03:41:32.612Z,0
2023-03-17T03:42:47.026Z,0
2023-03-17T03:44:01.348Z,0
2023-03-17T03:45:15.631Z,0
2023-03-17T03:46:29.912Z,0
2023-03-17T03:47:44.314Z,0
2023-03-17T03:48:58.000Z,0
2023-03-17T03:50:12.924Z,0
2023-03-17T03:51:27.351Z,0
2023-03-17T03:52:41.761Z,0
2023-03-17T03:53:56.075Z,0
2023-03-17T03:55:10.353Z,0
2023-03-17T03:56:24.646Z,0
2023-03-17T03:57:39.055Z,0
2023-03-17T04:00:07.652Z,0
2023-03-17T04:01:21.929Z,0
2023-03-17T04:02:36.332Z,0
2023-03-17T04:03:50.667Z,0
2023-03-17T04:05:04.940Z,0
2023-03-17T04:06:19.352Z,0
2023-03-17T04:07:33.752Z,0
2023-03-17T04:08:48.088Z,0
2023-03-17T04:10:02.353Z,0
2023-03-17T04:11:16.760Z,0
2023-03-17T04:12:31.173Z,0
2023-03-17T04:13:45.493Z,0
2023-03-17T04:14:59.783Z,0
2023-03-17T04:16:14.059Z,0
2023-03-17T04:17:28.462Z,0
2023-03-17T04:18:42.778Z,0
2023-03-17T04:19:57.063Z,0
2023-03-17T04:22:25.757Z,0
2023-03-17T04:23:40.079Z,0
2023-03-17T04:24:54.353Z,0
2023-03-17T04:26:08.779Z,0
2023-03-17T04:27:23.193Z,0
2023-03-17T04:28:37.511Z,0
2023-03-17T04:29:51.806Z,0
2023-03-17T04:31:06.080Z,0
2023-03-17T04:32:20.487Z,0
2023-03-17T04:33:34.805Z,0
2023-03-17T04:34:49.099Z,0
2023-03-17T04:36:03.500Z,0
2023-03-17T04:37:17.899Z,0
2023-03-17T04:38:32.215Z,0
2023-03-17T04:39:46.511Z,0
2023-03-17T04:41:00.790Z,0
2023-03-17T04:42:15.191Z,0
2023-03-17T04:43:29.517Z,0
2023-03-17T04:44:43.796Z,0
2023-03-17T04:45:58.080Z,0
2023-03-17T04:47:12.490Z,0
2023-03-17T04:48:26.817Z,0
2023-03-17T04:49:41.092Z,0
2023-03-17T04:50:55.368Z,0
2023-03-17T04:52:09.773Z,0
2023-03-17T04:53:24.098Z,0
2023-03-17T04:54:38.383Z,0
2023-03-17T04:57:07.072Z,0
2023-03-17T04:59:35.611Z,1
2023-03-17T05:00:49.981Z,1
2023-03-17T05:02:04.224Z,1
2023-03-17T05:03:18.525Z,1
2023-03-17T05:04:32.749Z,1
2023-03-17T05:05:46.981Z,1
2023-03-17T05:07:01.257Z,0
2023-03-17T05:08:15.664Z,0
2023-03-17T05:09:30.029Z,2
2023-03-17T05:10:44.265Z,2
2023-03-17T05:11:58.495Z,1
2023-03-17T05:13:12.729Z,2
2023-03-17T05:14:26.953Z,3
2023-03-17T05:15:41.235Z,3
2023-03-17T05:16:55.486Z,9
2023-03-17T05:18:09.711Z,10
2023-03-17T05:19:23.932Z,12
2023-03-17T05:20:38.163Z,9
2023-03-17T05:23:06.706Z,21
2023-03-17T05:24:20.944Z,28
2023-03-17T05:25:35.279Z,33
2023-03-17T05:26:49.511Z,36
2023-03-17T05:28:03.813Z,44
2023-03-17T05:29:18.047Z,54
2023-03-17T05:30:32.286Z,65
2023-03-17T05:31:46.509Z,79
2023-03-17T05:33:00.729Z,84
2023-03-17T05:34:15.028Z,100
2023-03-17T05:35:29.273Z,116
2023-03-17T05:36:43.500Z,133
2023-03-17T05:37:57.873Z,148
2023-03-17T05:39:12.103Z,161
2023-03-17T05:40:26.395Z,176
2023-03-17T05:41:40.631Z,197
2023-03-17T05:42:54.858Z,224
2023-03-17T05:44:09.102Z,250
2023-03-17T05:45:23.322Z,261
2023-03-17T05:46:37.612Z,286
2023-03-17T05:47:51.862Z,319
2023-03-17T05:49:06.094Z,353
2023-03-17T05:50:20.431Z,390
2023-03-17T05:51:34.666Z,404
2023-03-17T05:52:48.968Z,440
2023-03-17T05:54:03.201Z,489
2023-03-17T05:55:17.435Z,527
2023-03-17T05:56:31.652Z,574
2023-03-17T05:57:45.888Z,602
2023-03-17T05:59:00.183Z,646
2023-03-17T06:00:14.433Z,691
2023-03-17T06:01:28.653Z,728
2023-03-17T06:02:42.873Z,765
2023-03-17T06:03:57.098Z,787
2023-03-17T06:05:11.409Z,822
2023-03-17T06:06:25.641Z,850
2023-03-17T06:07:40.015Z,892
2023-03-17T06:08:54.250Z,931
2023-03-17T06:10:08.475Z,941
2023-03-17T06:11:22.784Z,975
2023-03-17T06:12:37.017Z,1010
2023-03-17T06:13:51.246Z,1032
2023-03-17T06:15:05.471Z,1054
2023-03-17T06:16:19.702Z,1097
2023-03-17T06:17:34.001Z,1149
2023-03-17T06:18:48.234Z,1208
2023-03-17T06:20:02.586Z,1240
2023-03-17T06:21:16.815Z,1268
2023-03-17T06:22:31.046Z,1283
2023-03-17T06:23:45.342Z,1308
2023-03-17T06:24:59.581Z,1363
2023-03-17T06:26:13.816Z,1413
2023-03-17T06:27:28.038Z,1468
2023-03-17T06:28:42.252Z,1492
2023-03-17T06:29:56.553Z,1537
2023-03-17T06:31:10.808Z,1571
2023-03-17T06:32:25.033Z,1658
2023-03-17T06:33:39.248Z,1690
2023-03-17T06:34:53.475Z,1701
2023-03-17T06:36:07.788Z,1734
2023-03-17T06:37:22.018Z,1719
2023-03-17T06:38:36.260Z,1771
2023-03-17T06:39:50.475Z,1884
2023-03-17T06:41:04.714Z,2029
2023-03-17T06:42:19.014Z,1920
2023-03-17T06:43:33.245Z,1992
2023-03-17T06:44:47.596Z,2050
2023-03-17T06:47:16.053Z,2170
2023-03-17T06:48:30.357Z,2173
2023-03-17T06:49:44.592Z,2187
2023-03-17T06:50:58.811Z,2247
2023-03-17T06:52:13.046Z,2393
2023-03-17T06:53:27.265Z,2436
2023-03-17T06:54:41.566Z,2535
2023-03-17T06:55:55.813Z,2629
2023-03-17T06:57:10.035Z,2762
2023-03-17T06:58:24.272Z,2889
2023-03-17T06:59:38.496Z,2920
2023-03-17T07:00:52.792Z,2943
2023-03-17T07:03:21.273Z,2863
2023-03-17T07:04:35.487Z,2803
2023-03-17T07:07:04.009Z,2846
2023-03-17T07:08:18.255Z,2920
2023-03-17T07:09:32.494Z,3011
2023-03-17T07:10:46.708Z,3023
2023-03-17T07:12:00.949Z,3022
2023-03-17T07:13:15.235Z,3059
2023-03-17T07:14:29.476Z,3014
2023-03-17T07:16:57.937Z,3321
2023-03-17T07:18:12.155Z,3426
2023-03-17T07:19:26.468Z,3457
2023-03-17T07:20:40.710Z,3471
2023-03-17T07:21:54.939Z,3452
2023-03-17T07:23:09.147Z,3446
2023-03-17T07:25:37.678Z,3537
2023-03-17T07:26:51.917Z,3483
2023-03-17T07:28:06.149Z,3406
2023-03-17T07:29:20.381Z,3220
2023-03-17T07:30:34.658Z,3140
2023-03-17T07:31:48.973Z,3171
2023-03-17T07:33:03.253Z,3130
2023-03-17T07:35:31.844Z,3389
2023-03-17T07:36:46.069Z,3413
2023-03-17T07:38:00.364Z,3610
2023-03-17T07:39:14.614Z,3691
2023-03-17T07:40:28.841Z,3831
2023-03-17T07:41:43.058Z,4022
2023-03-17T07:42:57.408Z,4084
2023-03-17T07:44:11.713Z,4299
2023-03-17T07:45:25.951Z,4505
2023-03-17T07:46:40.186Z,4666
2023-03-17T07:47:54.406Z,4546
2023-03-17T07:49:08.643Z,4522
2023-03-17T07:50:22.942Z,4749
2023-03-17T07:51:37.171Z,4931
2023-03-17T07:52:51.400Z,5119
2023-03-17T07:54:05.626Z,5045
2023-03-17T07:55:19.851Z,4874
2023-03-17T07:56:34.161Z,4879
2023-03-17T07:57:48.390Z,5022
2023-03-17T07:59:02.620Z,4976
2023-03-17T08:00:16.994Z,5039
2023-03-17T08:01:31.218Z,5000
2023-03-17T08:02:45.522Z,4853
2023-03-17T08:03:59.754Z,4971
2023-03-17T08:05:13.984Z,5146
2023-03-17T08:06:28.214Z,5333
2023-03-17T08:07:42.431Z,5412
2023-03-17T08:08:56.746Z,5473
2023-03-17T08:10:10.982Z,5436
2023-03-17T08:11:25.203Z,5411
2023-03-17T08:12:39.440Z,5297
2023-03-17T08:13:53.651Z,5196
2023-03-17T08:15:07.955Z,5213
2023-03-17T08:16:22.206Z,5119
2023-03-17T08:18:50.647Z,5381
2023-03-17T08:20:05.003Z,5426
2023-03-17T08:21:19.300Z,5622
2023-03-17T08:22:33.538Z,5593
2023-03-17T08:23:47.765Z,5542
2023-03-17T08:25:01.996Z,5588
2023-03-17T08:26:16.230Z,5706
2023-03-17T08:27:30.526Z,5811
2023-03-17T08:28:44.766Z,6037
2023-03-17T08:29:58.989Z,6141
2023-03-17T08:31:13.219Z,6357
2023-03-17T08:32:27.595Z,6383
2023-03-17T08:33:41.888Z,7044
2023-03-17T08:34:56.135Z,7151
2023-03-17T08:36:10.361Z,7404
2023-03-17T08:37:24.711Z,13067
2023-03-17T08:38:38.943Z,17814
2023-03-17T08:39:53.225Z,14320
2023-03-17T08:41:07.469Z,17670
2023-03-17T08:42:21.838Z,21505
2023-03-17T08:43:36.061Z,23613
2023-03-17T08:46:04.601Z,29605
2023-03-17T08:47:18.842Z,10533
2023-03-17T08:48:33.064Z,29081
2023-03-17T08:51:01.509Z,35685
2023-03-17T08:52:15.817Z,30393
2023-03-17T08:53:30.051Z,74657
2023-03-17T08:55:58.512Z,74990
2023-03-17T08:57:12.742Z,80056
2023-03-17T08:58:27.026Z,80859
2023-03-17T09:00:55.510Z,78107
2023-03-17T09:02:09.874Z,78653
2023-03-17T09:04:38.394Z,82423
2023-03-17T09:05:52.649Z,78513
2023-03-17T09:07:06.992Z,37976
2023-03-17T09:08:21.208Z,26551
2023-03-17T09:09:35.435Z,77988
2023-03-17T09:10:49.746Z,76437
2023-03-17T09:12:03.984Z,20062
2023-03-17T09:13:18.204Z,29922
2023-03-17T09:14:32.433Z,24419
2023-03-17T09:17:00.953Z,24245
2023-03-17T09:19:29.425Z,24266
2023-03-17T09:20:43.658Z,25836
2023-03-17T09:21:57.872Z,73793
2023-03-17T09:23:12.175Z,26703
2023-03-17T09:24:26.427Z,29876
2023-03-17T09:25:40.654Z,22040
2023-03-17T09:26:54.872Z,21178
2023-03-17T09:28:09.106Z,21243
2023-03-17T09:29:23.393Z,28234
2023-03-17T09:30:37.646Z,28316
2023-03-17T09:31:51.862Z,24335
2023-03-17T09:33:06.094Z,27339
2023-03-17T09:34:20.314Z,27258
2023-03-17T09:35:34.615Z,31553
2023-03-17T09:36:48.871Z,74669
2023-03-17T09:38:03.083Z,28434
2023-03-17T09:39:17.312Z,19234
2023-03-17T09:41:45.834Z,79360
2023-03-17T09:43:00.077Z,78778
2023-03-17T09:44:14.314Z,76448
2023-03-17T09:45:28.546Z,22136
2023-03-17T09:46:42.769Z,21646
2023-03-17T09:47:57.062Z,13153
2023-03-17T09:49:11.299Z,22352
2023-03-17T09:50:25.683Z,24762
2023-03-17T09:51:39.909Z,22386
2023-03-17T09:52:54.118Z,15820
2023-03-17T09:54:08.436Z,15039
2023-03-17T09:55:22.676Z,21334
2023-03-17T09:56:36.890Z,23061
2023-03-17T09:57:51.115Z,21473
2023-03-17T09:59:05.338Z,22822
2023-03-17T10:00:19.643Z,21718
2023-03-17T10:01:33.893Z,20903
2023-03-17T10:02:48.118Z,19119
2023-03-17T10:04:02.334Z,20092
2023-03-17T10:05:16.567Z,18951
2023-03-17T10:06:30.875Z,21509
2023-03-17T10:07:45.107Z,22145
2023-03-17T10:08:59.327Z,24007
2023-03-17T10:10:13.556Z,24490
2023-03-17T10:11:27.784Z,79081
2023-03-17T10:12:42.077Z,80471
2023-03-17T10:13:56.331Z,77200
2023-03-17T10:15:10.550Z,76837
2023-03-17T10:16:24.785Z,76926
2023-03-17T10:17:39.006Z,74886
2023-03-17T10:18:53.299Z,22822
2023-03-17T10:20:07.555Z,19699
2023-03-17T10:21:21.841Z,23846
2023-03-17T10:22:35.139Z,24908
2023-03-17T10:23:49.423Z,24992
2023-03-17T10:26:17.894Z,23711
2023-03-17T10:27:32.119Z,21640
2023-03-17T10:28:46.346Z,16584
2023-03-17T10:30:00.642Z,21981
2023-03-17T10:31:14.897Z,21562
2023-03-17T10:32:29.122Z,21971
2023-03-17T10:33:43.332Z,22280
2023-03-17T10:34:57.570Z,23165
2023-03-17T10:36:11.874Z,23940
2023-03-17T10:37:26.117Z,22377
2023-03-17T10:38:40.459Z,21172
2023-03-17T10:39:54.680Z,16930
2023-03-17T10:41:08.904Z,15608
2023-03-17T10:42:23.212Z,19161
2023-03-17T10:43:37.452Z,22551
2023-03-17T10:46:05.908Z,74903
2023-03-17T10:47:20.130Z,77454
2023-03-17T10:48:34.430Z,16902
2023-03-17T10:49:48.678Z,20048
2023-03-17T10:51:02.897Z,24722
2023-03-17T10:52:17.134Z,24707
2023-03-17T10:53:31.356Z,24800
2023-03-17T10:54:45.655Z,77374
2023-03-17T10:55:59.895Z,72662
2023-03-17T10:57:14.117Z,23420
2023-03-17T10:58:28.345Z,78216
2023-03-17T11:00:56.877Z,78301
2023-03-17T11:02:11.117Z,80342
2023-03-17T11:03:25.335Z,76838
2023-03-17T11:04:39.571Z,24312
2023-03-17T11:05:53.787Z,78715
2023-03-17T11:07:08.089Z,78254
2023-03-17T11:08:22.344Z,83469
2023-03-17T11:09:36.556Z,77861
2023-03-17T11:10:50.777Z,26219
2023-03-17T11:12:05.010Z,78770
2023-03-17T11:14:33.560Z,29423
2023-03-17T11:15:47.779Z,78755
2023-03-17T11:17:02.009Z,78575
2023-03-17T11:18:16.243Z,72795
2023-03-17T11:19:30.537Z,27093
2023-03-17T11:20:44.767Z,22913
2023-03-17T11:21:59.148Z,26158
2023-03-17T11:23:13.361Z,78231
2023-03-17T11:24:27.596Z,72499
2023-03-17T11:25:41.888Z,23121
2023-03-17T11:26:56.134Z,76586
2023-03-17T11:28:10.367Z,75241
2023-03-17T11:29:24.584Z,29464
2023-03-17T11:30:38.828Z,29249
2023-03-17T11:31:53.124Z,28739
2023-03-17T11:33:07.360Z,29692
2023-03-17T11:34:21.581Z,75354
2023-03-17T11:35:35.818Z,23118
2023-03-17T11:36:50.036Z,19257
2023-03-17T11:38:04.341Z,14038
2023-03-17T11:39:18.586Z,76169
2023-03-17T11:40:32.804Z,77692
2023-03-17T11:41:47.038Z,77165
2023-03-17T11:43:01.261Z,76191
2023-03-17T11:44:15.571Z,76001
2023-03-17T11:45:29.800Z,78694
2023-03-17T11:46:44.035Z,76984
2023-03-17T11:47:58.256Z,75153
2023-03-17T11:49:12.486Z,76485
2023-03-17T11:50:26.785Z,71229
2023-03-17T11:51:41.022Z,31283
2023-03-17T11:52:55.300Z,15815
2023-03-17T11:54:08.640Z,23834
2023-03-17T11:55:22.942Z,38116
2023-03-17T11:56:37.232Z,26155
2023-03-17T11:57:50.523Z,26741
2023-03-17T11:59:04.749Z,23167
2023-03-17T12:00:19.038Z,20755
2023-03-17T12:01:33.295Z,20600
2023-03-17T12:04:01.748Z,21950
2023-03-17T12:05:15.973Z,23297
2023-03-17T12:06:30.266Z,75794
2023-03-17T12:07:44.516Z,75771
2023-03-17T12:08:58.733Z,30734
2023-03-17T12:10:12.956Z,29024
2023-03-17T12:11:27.191Z,18763
2023-03-17T12:12:41.483Z,21056
2023-03-17T12:13:55.726Z,74575
2023-03-17T12:15:09.945Z,76096
2023-03-17T12:16:24.181Z,76859
2023-03-17T12:17:38.408Z,30048
2023-03-17T12:18:52.702Z,22173
2023-03-17T12:20:06.000Z,21064
2023-03-17T12:21:21.173Z,23270
2023-03-17T12:22:35.402Z,22247
2023-03-17T12:23:49.628Z,24107
2023-03-17T12:25:03.924Z,21746
2023-03-17T12:26:18.159Z,19785
2023-03-17T12:27:32.386Z,18575
2023-03-17T12:28:46.761Z,18643
2023-03-17T12:30:00.993Z,19239
2023-03-17T12:31:15.289Z,15087
2023-03-17T12:32:29.534Z,19167
2023-03-17T12:33:43.768Z,17773
2023-03-17T12:34:57.992Z,18372
2023-03-17T12:36:12.221Z,16663
2023-03-17T12:38:40.758Z,18390
2023-03-17T12:39:54.972Z,17367
2023-03-17T12:41:09.204Z,24963
2023-03-17T12:42:23.431Z,20607
2023-03-17T12:43:37.725Z,24939
2023-03-17T12:44:51.985Z,15296
2023-03-17T12:46:06.207Z,19578
2023-03-17T12:48:34.652Z,18211
2023-03-17T12:49:48.946Z,15207
2023-03-17T12:51:03.195Z,14415
2023-03-17T12:52:17.421Z,14524
2023-03-17T12:53:31.796Z,12120
2023-03-17T12:54:46.021Z,12638
2023-03-17T12:57:14.554Z,14066
2023-03-17T12:58:28.909Z,11970
2023-03-17T13:00:57.353Z,10202
2023-03-17T13:02:11.658Z,10260
2023-03-17T13:03:25.898Z,10066
2023-03-17T13:04:40.122Z,10235
2023-03-17T13:05:54.346Z,10237
2023-03-17T13:07:08.587Z,9824
2023-03-17T13:08:22.883Z,9619
2023-03-17T13:10:51.343Z,9433
2023-03-17T13:12:05.577Z,9654
2023-03-17T13:13:19.795Z,9517
2023-03-17T13:14:34.106Z,10387
2023-03-17T13:15:48.342Z,10319
2023-03-17T13:17:02.568Z,10058
2023-03-17T13:18:16.797Z,10412
2023-03-17T13:20:45.312Z,10271
2023-03-17T13:21:59.559Z,10611
2023-03-17T13:23:13.000Z,11006
2023-03-17T13:24:28.007Z,10899
2023-03-17T13:25:42.245Z,10627
2023-03-17T13:26:56.536Z,10638
2023-03-17T13:28:10.784Z,10905
2023-03-17T13:29:25.001Z,9842
2023-03-17T13:30:39.239Z,9568
2023-03-17T13:31:53.460Z,9550
2023-03-17T13:33:07.755Z,9378
2023-03-17T13:34:21.992Z,9555
2023-03-17T13:35:36.347Z,9040
2023-03-17T13:36:50.565Z,8708
2023-03-17T13:38:04.803Z,8565
2023-03-17T13:39:19.102Z,8618
2023-03-17T13:41:47.573Z,9068
2023-03-17T13:43:01.794Z,9136
2023-03-17T13:44:16.026Z,9861
2023-03-17T13:45:30.328Z,8950
2023-03-17T13:46:44.569Z,8529
2023-03-17T13:47:58.931Z,7944
2023-03-17T13:49:13.165Z,8062
2023-03-17T13:50:27.503Z,8038
2023-03-17T13:51:41.807Z,8718
2023-03-17T13:52:56.060Z,8277
2023-03-17T13:54:10.278Z,8821
2023-03-17T13:55:24.656Z,9599
2023-03-17T13:56:38.883Z,9533
2023-03-17T13:57:53.176Z,9402
2023-03-17T13:59:07.418Z,9309
2023-03-17T14:00:21.647Z,8628
2023-03-17T14:01:35.868Z,8463
2023-03-17T14:02:50.083Z,8523
2023-03-17T14:04:04.400Z,8349
2023-03-17T14:05:18.630Z,8255
2023-03-17T14:06:32.859Z,8134
2023-03-17T14:07:47.086Z,8079
2023-03-17T14:09:01.306Z,8016
2023-03-17T14:10:15.609Z,7929
2023-03-17T14:11:29.865Z,7824
2023-03-17T14:12:44.214Z,7655
2023-03-17T14:13:58.423Z,7447
2023-03-17T14:15:12.658Z,7370
2023-03-17T14:16:26.954Z,7258
2023-03-17T14:17:41.208Z,7173
2023-03-17T14:18:55.420Z,7115
2023-03-17T14:20:09.644Z,7031
2023-03-17T14:21:23.879Z,6971
2023-03-17T14:22:38.178Z,6832
2023-03-17T14:23:52.419Z,6731
2023-03-17T14:25:06.650Z,6644
2023-03-17T14:26:20.870Z,6570
2023-03-17T14:27:35.231Z,6529
2023-03-17T14:28:49.549Z,6449
2023-03-17T14:30:03.776Z,6332
2023-03-17T14:31:18.000Z,6210
2023-03-17T14:32:32.236Z,6061
2023-03-17T14:33:46.450Z,6042
2023-03-17T14:35:00.761Z,5965
2023-03-17T14:36:14.997Z,5944
2023-03-17T14:37:29.376Z,5929
2023-03-17T14:38:43.604Z,5894
2023-03-17T14:39:57.824Z,5914
2023-03-17T14:41:12.117Z,5836
2023-03-17T14:43:40.582Z,5623
2023-03-17T14:44:54.940Z,5494
2023-03-17T14:46:09.158Z,5444
2023-03-17T14:47:23.454Z,5350
2023-03-17T14:48:37.701Z,5323
2023-03-17T14:49:51.937Z,5326
2023-03-17T14:52:20.383Z,5226
2023-03-17T14:53:34.682Z,5042
2023-03-17T14:54:48.921Z,4847
2023-03-17T14:56:03.143Z,4690
2023-03-17T14:57:17.370Z,4597
2023-03-17T14:58:31.597Z,4585
2023-03-17T14:59:45.895Z,4550
2023-03-17T15:01:00.133Z,4498
2023-03-17T15:02:14.362Z,4414
2023-03-17T15:03:28.602Z,4338
2023-03-17T15:04:42.817Z,4306
2023-03-17T15:05:57.110Z,4264
2023-03-17T15:07:11.356Z,4265
2023-03-17T15:08:25.584Z,4228
2023-03-17T15:09:39.951Z,4132
2023-03-17T15:10:54.172Z,4068
2023-03-17T15:12:08.489Z,3931
2023-03-17T15:13:22.730Z,3861
2023-03-17T15:14:37.094Z,3893
2023-03-17T15:15:51.314Z,3941
2023-03-17T15:17:05.675Z,3953
2023-03-17T15:18:19.957Z,3918
2023-03-17T15:19:34.211Z,3863
2023-03-17T15:20:48.439Z,3805
2023-03-17T15:22:02.650Z,3777
2023-03-17T15:23:16.886Z,3761
2023-03-17T15:24:31.182Z,3766
2023-03-17T15:25:45.434Z,3795
2023-03-17T15:26:59.661Z,3794
2023-03-17T15:28:13.885Z,3780
2023-03-17T15:29:28.100Z,3769
2023-03-17T15:31:56.642Z,3762
2023-03-17T15:33:10.878Z,3732
2023-03-17T15:34:25.229Z,3686
2023-03-17T15:35:39.442Z,3685
2023-03-17T15:36:53.757Z,3665
2023-03-17T15:38:07.993Z,3616
2023-03-17T15:40:36.446Z,3353
2023-03-17T15:41:50.667Z,3298
2023-03-17T15:43:04.971Z,3059
2023-03-17T15:44:19.202Z,2766
2023-03-17T15:45:33.435Z,2510
2023-03-17T15:46:47.797Z,2376
2023-03-17T15:48:02.033Z,2358
2023-03-17T15:49:16.337Z,2364
2023-03-17T15:50:30.577Z,2351
2023-03-17T15:51:44.798Z,2236
2023-03-17T15:52:59.018Z,2069
2023-03-17T15:54:13.389Z,2005
2023-03-17T15:55:27.684Z,1819
2023-03-17T15:56:41.931Z,1627
2023-03-17T15:57:56.165Z,1436
2023-03-17T15:59:10.506Z,1296
2023-03-17T16:00:24.739Z,1271
2023-03-17T16:01:39.043Z,1214
2023-03-17T16:02:53.284Z,1163
2023-03-17T16:04:07.495Z,1144
2023-03-17T16:05:21.732Z,1135
2023-03-17T16:06:35.957Z,1142
2023-03-17T16:07:50.253Z,1093
2023-03-17T16:09:04.498Z,1056
2023-03-17T16:10:18.721Z,1061
2023-03-17T16:11:32.937Z,1086
2023-03-17T16:12:47.165Z,1080
2023-03-17T16:14:01.473Z,1168
2023-03-17T16:15:15.709Z,1349
2023-03-17T16:16:30.055Z,1516
2023-03-17T16:17:44.291Z,1602
2023-03-17T16:18:58.525Z,1626
2023-03-17T16:20:12.809Z,1618
2023-03-17T16:21:27.059Z,1501
2023-03-17T16:23:55.509Z,1106
2023-03-17T16:25:09.734Z,1026
2023-03-17T16:26:24.031Z,808
2023-03-17T16:27:38.263Z,649
2023-03-17T16:28:52.507Z,546
2023-03-17T16:30:06.721Z,531
2023-03-17T16:31:20.944Z,543
2023-03-17T16:32:35.243Z,591
2023-03-17T16:33:49.482Z,647
2023-03-17T16:35:03.713Z,661
2023-03-17T16:36:18.080Z,679
2023-03-17T16:37:32.311Z,704
2023-03-17T16:38:46.617Z,713
2023-03-17T16:40:00.846Z,726
2023-03-17T16:41:15.078Z,725
2023-03-17T16:42:29.303Z,716
2023-03-17T16:43:43.537Z,710
2023-03-17T16:44:57.844Z,673
2023-03-17T16:46:12.075Z,629
2023-03-17T16:47:26.299Z,537
2023-03-17T16:48:40.669Z,418
2023-03-17T16:49:54.905Z,373
2023-03-17T16:51:09.207Z,317
2023-03-17T16:52:23.440Z,297
2023-03-17T16:53:37.670Z,275
2023-03-17T16:54:51.894Z,241
2023-03-17T16:56:06.128Z,235
2023-03-17T16:57:20.416Z,229
2023-03-17T16:58:34.667Z,242
2023-03-17T16:59:48.881Z,271
2023-03-17T17:01:03.240Z,317
2023-03-17T17:02:17.453Z,337
2023-03-17T17:03:31.761Z,348
2023-03-17T17:04:45.998Z,330
2023-03-17T17:06:00.224Z,317
2023-03-17T17:07:14.459Z,300
2023-03-17T17:08:28.675Z,294
2023-03-17T17:09:42.983Z,281
2023-03-17T17:10:57.213Z,260
2023-03-17T17:12:11.452Z,241
2023-03-17T17:13:25.671Z,224
2023-03-17T17:14:39.908Z,224
2023-03-17T17:15:54.203Z,203
2023-03-17T17:17:08.433Z,185
2023-03-17T17:18:22.657Z,159
2023-03-17T17:19:36.893Z,136
2023-03-17T17:20:51.239Z,125
2023-03-17T17:22:05.547Z,112
2023-03-17T17:23:19.774Z,95
2023-03-17T17:24:34.013Z,90
2023-03-17T17:25:48.231Z,82
2023-03-17T17:27:02.463Z,85
2023-03-17T17:28:16.768Z,82
2023-03-17T17:29:31.002Z,75
2023-03-17T17:30:45.221Z,71
2023-03-17T17:31:59.457Z,69
2023-03-17T17:33:13.688Z,66
2023-03-17T17:34:27.976Z,63
2023-03-17T17:35:42.227Z,58
2023-03-17T17:36:56.441Z,52
2023-03-17T17:38:10.667Z,44
2023-03-17T17:39:24.893Z,42
2023-03-17T17:41:53.439Z,28
2023-03-17T17:43:07.656Z,23
2023-03-17T17:44:21.892Z,20
2023-03-17T17:45:36.118Z,17
2023-03-17T17:46:50.409Z,15
2023-03-17T17:48:04.664Z,7
2023-03-17T17:49:18.878Z,10
2023-03-17T17:50:33.244Z,10
2023-03-17T17:51:47.475Z,5
2023-03-17T17:53:01.767Z,7